createdAt,value
2022-12-18T00:00:24.481Z,71.97
2022-12-18T00:02:57.427Z,72.15
2022-12-18T00:05:25.610Z,71.94
2022-12-18T00:07:53.493Z,72.42
2022-12-18T00:10:21.641Z,71.91
2022-12-18T00:12:49.691Z,72.07
2022-12-18T00:15:17.866Z,72.03
2022-12-18T00:17:45.771Z,72.16
2022-12-18T00:20:15.351Z,71.96
2022-12-18T00:22:43.246Z,71.24
2022-12-18T00:25:11.322Z,71.62
2022-12-18T04:58:36.215Z,59.80
2022-12-18T05:01:04.780Z,60.64
2022-12-18T05:03:32.794Z,61.13
2022-12-18T05:06:00.764Z,60.67
2022-12-18T05:08:28.814Z,60.50
2022-12-18T05:11:01.010Z,60.46
2022-12-18T05:13:29.077Z,60.13
2022-12-18T05:15:58.538Z,60.52
2022-12-18T05:18:27.278Z,60.51
2022-12-18T05:20:56.248Z,60.82
2022-12-18T05:23:25.714Z,60.77
2022-12-18T05:25:54.783Z,60.31
2022-12-18T05:28:23.459Z,59.77
2022-12-18T05:30:51.883Z,60.04
2022-12-18T05:33:22.099Z,60.11
2022-12-18T05:35:52.516Z,59.83
2022-12-18T05:38:20.714Z,59.51
2022-12-18T05:40:49.847Z,59.82
2022-12-18T05:43:21.396Z,59.36
2022-12-18T05:45:50.705Z,60.04
2022-12-18T05:48:19.589Z,60.27
2022-12-18T05:50:50.436Z,60.02
2022-12-18T05:53:21.177Z,60.36
2022-12-18T05:55:50.218Z,60.42
2022-12-18T05:58:18.322Z,60.22
2022-12-18T06:00:48.166Z,60.06
2022-12-18T06:03:16.262Z,60.22
2022-12-18T06:05:46.196Z,59.63
2022-12-18T06:08:15.600Z,59.23
2022-12-18T06:10:44.216Z,58.87
2022-12-18T06:13:12.159Z,59.24
2022-12-18T06:15:40.574Z,58.93
2022-12-18T06:18:08.452Z,59.19
2022-12-18T06:20:37.550Z,59.01
2022-12-18T06:23:05.682Z,59.20
2022-12-18T06:25:35.014Z,59.71
2022-12-18T06:28:02.941Z,59.40
2022-12-18T06:30:30.783Z,59.26
2022-12-18T06:32:58.660Z,59.00
2022-12-18T06:35:26.575Z,59.36
2022-12-18T06:37:54.514Z,59.08
2022-12-18T06:40:22.696Z,58.77
2022-12-18T06:42:51.919Z,58.68
2022-12-18T06:45:19.898Z,58.47
2022-12-18T06:47:48.012Z,58.27
2022-12-18T06:50:16.026Z,57.88
2022-12-18T06:52:44.948Z,58.17
2022-12-18T06:55:13.882Z,58.50
2022-12-18T06:57:41.844Z,58.75
2022-12-18T07:00:12.223Z,59.19
2022-12-18T07:02:40.482Z,58.70
2022-12-18T07:05:11.032Z,58.45
2022-12-18T07:07:39.163Z,57.90
2022-12-18T07:10:07.678Z,57.83
2022-12-18T07:12:35.593Z,57.92
2022-12-18T07:15:03.694Z,57.85
2022-12-18T07:17:33.001Z,57.76
2022-12-18T07:20:01.046Z,58.14
2022-12-18T07:22:29.010Z,58.56
2022-12-18T07:24:57.283Z,58.67
2022-12-18T07:27:25.517Z,58.65
2022-12-18T07:29:53.485Z,58.61
2022-12-18T07:32:21.544Z,58.87
2022-12-18T07:34:50.776Z,58.41
2022-12-18T07:37:18.655Z,57.92
2022-12-18T07:39:46.652Z,57.96
2022-12-18T07:42:40.797Z,57.28
2022-12-18T07:45:10.068Z,57.80
2022-12-18T07:47:38.058Z,57.79
2022-12-18T07:50:08.488Z,57.65
2022-12-18T07:52:36.568Z,57.89
2022-12-18T07:55:05.412Z,58.08
2022-12-18T07:57:49.905Z,58.16
2022-12-18T08:00:19.797Z,57.37
2022-12-18T08:02:49.883Z,57.49
2022-12-18T08:05:19.494Z,57.49
2022-12-18T08:07:47.414Z,57.00
2022-12-18T08:10:15.867Z,57.48
2022-12-18T08:12:43.786Z,57.55
2022-12-18T08:15:12.418Z,57.66
2022-12-18T08:17:40.305Z,57.76
2022-12-18T08:20:09.514Z,57.55
2022-12-18T08:22:41.506Z,57.33
2022-12-18T08:25:10.319Z,57.12
2022-12-18T08:27:38.416Z,56.97
2022-12-18T08:30:07.465Z,57.53
2022-12-18T08:32:35.527Z,57.54
2022-12-18T08:35:03.718Z,56.67
2022-12-18T08:37:31.603Z,57.28
2022-12-18T08:40:00.855Z,56.48
2022-12-18T08:42:46.603Z,56.66
2022-12-18T08:45:15.062Z,55.75
2022-12-18T08:47:42.953Z,55.86
2022-12-18T08:50:12.160Z,55.01
2022-12-18T08:52:40.149Z,54.95
2022-12-18T08:55:11.282Z,54.79
2022-12-18T08:57:39.482Z,53.57
2022-12-18T09:00:08.871Z,53.99
2022-12-18T09:02:37.059Z,53.96
2022-12-18T09:05:05.964Z,53.64
2022-12-18T09:07:33.894Z,53.65
2022-12-18T09:10:02.223Z,53.69
2022-12-18T09:12:32.609Z,53.57
2022-12-18T09:15:00.516Z,53.67
2022-12-18T09:17:28.427Z,54.15
2022-12-18T09:19:56.326Z,53.70
2022-12-18T09:22:24.279Z,52.74
2022-12-18T09:24:52.235Z,54.10
2022-12-18T09:27:20.304Z,54.24
2022-12-18T09:29:49.720Z,54.35
2022-12-18T09:32:22.198Z,53.49
2022-12-18T09:34:50.614Z,52.91
2022-12-18T09:37:18.464Z,53.49
2022-12-18T09:39:46.399Z,52.95
2022-12-18T09:42:22.474Z,52.84
2022-12-18T09:44:55.638Z,52.80
2022-12-18T09:47:27.537Z,52.81
2022-12-18T09:49:59.396Z,52.76
2022-12-18T09:52:32.629Z,53.27
2022-12-18T09:55:02.625Z,53.40
2022-12-18T09:57:33.449Z,53.01
2022-12-18T10:00:08.501Z,53.11
2022-12-18T10:02:39.767Z,53.58
2022-12-18T10:05:11.413Z,53.85
2022-12-18T10:07:53.087Z,53.74
2022-12-18T10:10:29.052Z,53.41
2022-12-18T10:13:04.867Z,53.71
2022-12-18T10:15:40.815Z,54.24
2022-12-18T10:18:32.887Z,53.41
2022-12-18T10:21:08.268Z,53.71
2022-12-18T10:23:48.573Z,53.93
2022-12-18T10:26:16.829Z,53.78
2022-12-18T10:28:46.132Z,53.74
2022-12-18T10:31:18.954Z,53.54
2022-12-18T10:33:47.309Z,53.98
2022-12-18T10:36:15.753Z,54.42
2022-12-18T10:38:44.537Z,53.89
2022-12-18T10:41:27.866Z,53.84
2022-12-18T10:44:19.043Z,53.66
2022-12-18T10:46:51.222Z,52.99
2022-12-18T10:49:25.772Z,53.11
2022-12-18T10:52:06.376Z,53.53
2022-12-18T10:54:36.794Z,53.86
2022-12-18T10:57:17.034Z,54.18
2022-12-18T10:59:53.915Z,54.07
2022-12-18T11:02:33.225Z,53.98
2022-12-18T11:05:01.315Z,53.95
2022-12-18T11:07:51.007Z,54.07
2022-12-18T11:10:20.720Z,53.90
2022-12-18T11:12:49.093Z,53.71
2022-12-18T11:15:21.607Z,53.39
2022-12-18T11:17:53.676Z,53.10
2022-12-18T11:20:28.815Z,53.31
2022-12-18T11:22:59.719Z,52.98
2022-12-18T11:25:32.765Z,52.98
2022-12-18T11:28:04.122Z,53.39
2022-12-18T11:30:33.424Z,53.96
2022-12-18T11:33:07.476Z,54.18
2022-12-18T11:35:44.667Z,54.38
2022-12-18T11:38:22.213Z,54.14
2022-12-18T11:40:57.899Z,54.35
2022-12-18T11:43:33.841Z,53.90
2022-12-18T11:46:07.427Z,54.05
2022-12-18T11:48:41.677Z,54.24
2022-12-18T11:51:27.263Z,53.86
2022-12-18T11:53:55.410Z,53.69
2022-12-18T11:56:36.715Z,53.65
2022-12-18T11:59:16.551Z,53.41
2022-12-18T12:01:52.838Z,53.62
2022-12-18T12:04:45.896Z,54.31
2022-12-18T12:07:23.852Z,54.50
2022-12-18T12:10:03.588Z,53.82
2022-12-18T12:12:48.973Z,54.45
2022-12-18T12:15:27.976Z,54.29
2022-12-18T12:18:08.187Z,54.71
2022-12-18T12:20:48.087Z,54.36
2022-12-18T12:23:27.809Z,54.53
2022-12-18T12:26:04.023Z,54.55
2022-12-18T12:28:50.616Z,54.27
2022-12-18T12:31:27.707Z,54.48
2022-12-18T12:34:01.919Z,54.15
2022-12-18T12:36:40.073Z,54.28
2022-12-18T12:39:16.874Z,54.51
2022-12-18T12:42:06.225Z,53.84
2022-12-18T12:44:44.328Z,53.60
2022-12-18T12:47:18.114Z,54.09
2022-12-18T12:49:49.997Z,54.43
2022-12-18T12:52:31.864Z,54.28
2022-12-18T12:55:01.664Z,53.82
2022-12-18T12:57:36.511Z,53.67
2022-12-18T13:00:09.072Z,53.49
2022-12-18T13:02:44.729Z,53.55
2022-12-18T13:05:23.797Z,53.27
2022-12-18T13:10:45.081Z,52.83
2022-12-18T13:13:17.095Z,53.03
2022-12-18T13:15:47.482Z,52.68
2022-12-18T13:18:21.727Z,52.45
2022-12-18T13:20:55.209Z,52.60
2022-12-18T13:23:33.072Z,52.74
2022-12-18T13:26:28.177Z,52.24
2022-12-18T13:28:58.715Z,52.43
2022-12-18T13:32:09.743Z,51.58
2022-12-18T13:34:38.478Z,51.72
2022-12-18T13:37:43.307Z,51.81
2022-12-18T13:40:51.029Z,51.87
2022-12-18T13:43:29.137Z,51.59
2022-12-18T13:46:08.684Z,51.76
2022-12-18T13:48:41.392Z,50.92
2022-12-18T13:51:12.418Z,50.78
2022-12-18T13:53:46.228Z,50.84
2022-12-18T13:56:21.292Z,50.55
2022-12-18T13:59:07.741Z,50.69
2022-12-18T14:01:35.822Z,50.28
2022-12-18T14:04:18.555Z,50.68
2022-12-18T14:06:47.465Z,50.71
2022-12-18T14:09:21.407Z,50.86
2022-12-18T14:11:51.514Z,51.40
2022-12-18T14:14:21.548Z,50.46
2022-12-18T14:16:50.332Z,50.95
2022-12-18T14:19:20.494Z,51.68
2022-12-18T14:21:50.124Z,51.33
2022-12-18T14:24:20.789Z,51.50
2022-12-18T14:26:50.895Z,51.61
2022-12-18T14:29:26.359Z,51.80
2022-12-18T14:32:14.964Z,51.16
2022-12-18T14:34:45.510Z,51.33
2022-12-18T14:37:15.076Z,50.79
2022-12-18T14:39:57.072Z,50.47
2022-12-18T14:42:29.236Z,50.82
2022-12-18T14:45:42.715Z,50.68
2022-12-18T14:48:18.358Z,50.60
2022-12-18T14:50:59.305Z,50.15
2022-12-18T14:53:37.350Z,49.62
2022-12-18T14:56:16.441Z,49.54
2022-12-18T14:59:58.389Z,49.75
2022-12-18T15:02:30.987Z,49.70
2022-12-18T15:05:12.759Z,50.21
2022-12-18T15:07:46.063Z,50.00
2022-12-18T15:10:16.343Z,50.08
2022-12-18T15:12:46.102Z,50.81
2022-12-18T15:15:47.862Z,50.80
2022-12-18T15:18:20.848Z,50.82
2022-12-18T15:20:52.024Z,50.74
2022-12-18T15:23:23.196Z,51.07
2022-12-18T15:25:58.220Z,50.96
2022-12-18T15:28:29.119Z,51.17
2022-12-18T15:31:06.078Z,51.58
2022-12-18T15:33:38.646Z,51.17
2022-12-18T15:36:11.338Z,50.93
2022-12-18T15:38:39.542Z,50.95
2022-12-18T15:41:13.873Z,51.28
2022-12-18T15:43:41.675Z,50.76
2022-12-18T15:46:15.094Z,51.17
2022-12-18T15:48:47.243Z,51.29
2022-12-18T15:51:19.373Z,51.38
2022-12-18T15:53:50.059Z,51.31
2022-12-18T15:56:36.048Z,51.04
2022-12-18T15:59:07.053Z,51.49
2022-12-18T16:01:38.321Z,51.40
2022-12-18T16:04:14.190Z,51.30
2022-12-18T16:07:12.815Z,51.65
2022-12-18T16:09:30.815Z,51.60
2022-12-18T16:12:02.931Z,51.39
2022-12-18T16:14:32.336Z,51.88
2022-12-18T16:17:03.075Z,52.21
2022-12-18T16:19:32.353Z,52.41
2022-12-18T16:22:04.220Z,52.48
2022-12-18T16:24:35.140Z,51.92
2022-12-18T16:27:03.752Z,52.25
2022-12-18T16:29:32.138Z,52.14
2022-12-18T16:32:02.059Z,51.81
2022-12-18T16:34:35.394Z,52.18
2022-12-18T16:37:06.629Z,52.85
2022-12-18T16:39:35.537Z,52.31
2022-12-18T16:42:05.659Z,52.62
2022-12-18T16:44:34.534Z,52.59
2022-12-18T16:47:03.929Z,52.98
2022-12-18T16:49:33.406Z,53.29
2022-12-18T16:52:05.102Z,52.94
2022-12-18T16:54:33.991Z,52.60
2022-12-18T16:57:02.641Z,53.25
2022-12-18T16:59:30.731Z,53.13
2022-12-18T17:01:58.990Z,53.24
2022-12-18T17:04:27.447Z,53.68
2022-12-18T17:06:57.402Z,54.38
2022-12-18T17:09:26.216Z,54.67
2022-12-18T17:11:55.324Z,54.48
2022-12-18T17:14:25.162Z,54.30
2022-12-18T17:17:19.593Z,54.83
2022-12-18T17:19:41.624Z,54.90
2022-12-18T17:22:11.196Z,55.25
2022-12-18T17:24:39.436Z,54.70
2022-12-18T17:27:09.258Z,54.95
2022-12-18T17:29:40.153Z,54.38
2022-12-18T17:32:13.739Z,54.26
2022-12-18T17:34:41.918Z,54.26
2022-12-18T17:37:11.249Z,54.66
2022-12-18T17:39:40.037Z,54.72
2022-12-18T17:42:12.074Z,54.57
2022-12-18T17:44:44.818Z,54.09
2022-12-18T17:47:13.429Z,53.87
2022-12-18T17:49:41.982Z,53.96
2022-12-18T17:52:11.715Z,54.17
2022-12-18T17:54:42.238Z,54.35
2022-12-18T17:57:11.698Z,54.86
2022-12-18T17:59:39.686Z,54.72
2022-12-18T18:02:08.364Z,54.51
2022-12-18T18:04:37.681Z,54.95
2022-12-18T18:07:06.065Z,54.97
2022-12-18T18:09:35.563Z,54.45
2022-12-18T18:12:21.044Z,54.31
2022-12-18T18:14:49.183Z,54.38
2022-12-18T18:17:17.392Z,54.54
2022-12-18T18:19:49.031Z,54.92
2022-12-18T18:22:17.810Z,54.51
2022-12-18T18:24:48.530Z,54.61
2022-12-18T18:27:16.884Z,54.79
2022-12-18T18:29:45.427Z,54.70
2022-12-18T18:32:13.370Z,54.41
2022-12-18T18:34:41.575Z,54.63
2022-12-18T18:37:11.148Z,54.37
2022-12-18T18:39:39.424Z,54.31
2022-12-18T18:42:08.923Z,54.29
2022-12-18T18:44:37.297Z,53.90
2022-12-18T18:47:09.504Z,53.74
2022-12-18T18:49:38.120Z,53.86
2022-12-18T18:52:07.114Z,54.26
2022-12-18T18:54:34.962Z,53.88
2022-12-18T18:57:20.038Z,53.67
2022-12-18T18:59:49.903Z,53.78
2022-12-18T19:02:19.054Z,53.96
2022-12-18T19:04:47.310Z,53.25
2022-12-18T19:07:28.119Z,52.85
2022-12-18T19:09:58.138Z,52.53
2022-12-18T19:12:50.123Z,53.18
2022-12-18T19:15:19.594Z,53.01
2022-12-18T19:17:48.037Z,52.34
2022-12-18T19:20:16.662Z,52.58
2022-12-18T19:22:46.064Z,52.17
2022-12-18T19:25:29.936Z,52.04
2022-12-18T19:28:15.980Z,52.24
2022-12-18T19:30:58.657Z,52.17
2022-12-18T19:33:44.407Z,51.71
2022-12-18T19:36:16.729Z,51.74
2022-12-18T19:38:45.647Z,51.98
2022-12-18T19:41:17.650Z,51.73
2022-12-18T19:43:47.082Z,52.34
2022-12-18T19:46:18.200Z,52.25
2022-12-18T19:48:47.732Z,52.44
2022-12-18T19:51:18.576Z,52.73
2022-12-18T19:53:47.190Z,52.84
2022-12-18T19:56:17.569Z,52.71
2022-12-18T19:58:46.310Z,52.61
2022-12-18T20:01:17.251Z,52.42
2022-12-18T20:03:51.619Z,52.94
2022-12-18T20:06:26.420Z,53.39
2022-12-18T20:09:00.156Z,52.74
2022-12-18T20:11:29.208Z,52.96
2022-12-18T20:13:57.358Z,53.26
2022-12-18T20:16:26.893Z,52.96
2022-12-18T20:18:58.896Z,52.93
2022-12-18T20:21:27.271Z,53.11
2022-12-18T20:23:55.768Z,53.19
2022-12-18T20:26:24.824Z,53.49
2022-12-18T20:28:53.944Z,53.57
2022-12-18T20:31:22.436Z,53.43
2022-12-18T20:33:53.375Z,53.63
2022-12-18T20:36:26.911Z,53.82
2022-12-18T20:38:58.056Z,53.83
2022-12-18T20:41:37.395Z,54.62
2022-12-18T20:44:09.873Z,54.48
2022-12-18T20:46:50.891Z,55.48
2022-12-18T20:49:20.243Z,55.00
2022-12-18T20:51:51.418Z,55.13
2022-12-18T20:54:22.520Z,55.42
2022-12-18T20:56:51.140Z,55.77
2022-12-18T20:59:19.807Z,55.45
2022-12-18T21:01:49.531Z,55.75
2022-12-18T21:04:18.872Z,55.97
2022-12-18T21:06:52.885Z,55.94
2022-12-18T21:09:29.978Z,55.79
2022-12-18T21:12:25.620Z,55.82
2022-12-18T21:14:53.819Z,55.87
2022-12-18T21:17:21.887Z,56.05
2022-12-18T21:19:49.750Z,55.57
2022-12-18T21:22:19.447Z,55.61
2022-12-18T21:24:47.317Z,55.46
2022-12-18T21:27:17.825Z,54.76
2022-12-18T21:29:47.026Z,54.67
2022-12-18T21:32:15.329Z,54.63
2022-12-18T21:34:47.855Z,54.68
2022-12-18T21:37:16.622Z,54.81
2022-12-18T21:39:47.955Z,55.09
2022-12-18T21:42:33.705Z,55.32
2022-12-18T21:45:01.875Z,54.84
2022-12-18T21:47:29.956Z,55.27
2022-12-18T21:49:58.123Z,55.22
2022-12-18T21:52:31.347Z,55.22
2022-12-18T21:55:08.555Z,55.01
2022-12-18T21:57:38.594Z,55.29
2022-12-18T22:00:08.897Z,55.34
2022-12-18T22:02:43.042Z,55.67
2022-12-18T22:05:11.419Z,55.88
2022-12-18T22:07:39.941Z,56.45
2022-12-18T22:10:10.432Z,56.04
2022-12-18T22:12:44.387Z,56.36
2022-12-18T22:15:21.352Z,56.27
2022-12-18T22:17:51.140Z,56.19
2022-12-18T22:20:20.697Z,56.51
2022-12-18T22:22:48.718Z,56.80
2022-12-18T22:25:18.108Z,57.24
2022-12-18T22:28:06.961Z,57.58
2022-12-18T22:30:34.020Z,57.67
2022-12-18T22:33:02.704Z,58.36
2022-12-18T22:35:30.690Z,59.12
2022-12-18T22:37:59.518Z,59.20
2022-12-18T22:40:29.511Z,60.01
2022-12-18T22:42:57.606Z,59.83
2022-12-18T22:45:25.769Z,60.73
2022-12-18T22:47:53.984Z,60.76
2022-12-18T22:50:22.060Z,61.42
2022-12-18T22:52:49.943Z,61.82
2022-12-18T22:55:18.431Z,61.90
2022-12-18T22:57:49.166Z,62.02
2022-12-18T23:00:24.291Z,62.92
2022-12-18T23:02:59.413Z,63.62
2022-12-18T23:05:29.714Z,63.59
2022-12-18T23:07:57.909Z,63.46
2022-12-18T23:10:26.056Z,63.41
2022-12-18T23:12:55.491Z,63.95
2022-12-18T23:15:27.905Z,65.00
2022-12-18T23:17:58.825Z,65.61
2022-12-18T23:20:27.805Z,65.73
2022-12-18T23:22:55.941Z,65.87
2022-12-18T23:25:23.878Z,66.12
2022-12-18T23:27:51.832Z,66.17
2022-12-18T23:30:21.092Z,65.98
2022-12-18T23:32:49.043Z,66.06
2022-12-18T23:35:17.257Z,65.96
2022-12-18T23:38:01.059Z,65.68
2022-12-18T23:40:30.387Z,66.63
2022-12-18T23:42:59.604Z,66.55
2022-12-18T23:45:29.205Z,66.55
2022-12-18T23:47:57.315Z,66.73
2022-12-18T23:50:29.315Z,66.90
2022-12-18T23:53:05.186Z,66.62
2022-12-18T23:55:35.544Z,66.84
2022-12-18T23:58:03.512Z,66.83
